Terminal Aerodrome Forecast
Issued by NWS

Home | Current Version | Previous Version | Graphics & Text | Print | Product List | Glossary On
Versions: 1 2 3 4 5 6 7 8 9 10 11 12 13
000
FTUS43 KIWX 292300
TAFSBN
TAF
KSBN 292340Z 3000/3024 21014G23KT P6SM BKN040
     FM300400 28013G22KT P6SM SCT028 BKN035
      TEMPO 3004/3006 BKN028
     FM300600 28011G18KT P6SM SCT030
     FM301200 28011KT P6SM SKC
     FM301600 28012G18KT P6SM SCT060=

USA.gov is the U.S. government's official web portal to all federal, state and local government web resources and services.